sensor_id;sensor_type;location;lat;lon;timestamp;temperature;humidity
75451;DHT22;64029;48.244;9.188;2022-11-15T00:01:32;4.40;88.70
75451;DHT22;64029;48.244;9.188;2022-11-15T00:03:59;4.40;88.80
75451;DHT22;64029;48.244;9.188;2022-11-15T00:06:26;4.40;88.80
75451;DHT22;64029;48.244;9.188;2022-11-15T00:08:53;4.40;88.80
75451;DHT22;64029;48.244;9.188;2022-11-15T00:11:20;4.40;88.80
75451;DHT22;64029;48.244;9.188;2022-11-15T00:13:46;4.40;88.80
75451;DHT22;64029;48.244;9.188;2022-11-15T00:16:13;4.40;88.80
75451;DHT22;64029;48.244;9.188;2022-11-15T00:18:41;4.40;88.70
75451;DHT22;64029;48.244;9.188;2022-11-15T00:21:10;4.40;88.90
75451;DHT22;64029;48.244;9.188;2022-11-15T00:23:38;4.30;89.30
75451;DHT22;64029;48.244;9.188;2022-11-15T00:26:05;4.30;88.40
75451;DHT22;64029;48.244;9.188;2022-11-15T00:28:31;4.30;88.40
75451;DHT22;64029;48.244;9.188;2022-11-15T00:31:02;4.30;88.40
75451;DHT22;64029;48.244;9.188;2022-11-15T00:33:29;4.30;88.50
75451;DHT22;64029;48.244;9.188;2022-11-15T00:36:01;4.20;88.30
75451;DHT22;64029;48.244;9.188;2022-11-15T00:38:33;4.20;88.20
75451;DHT22;64029;48.244;9.188;2022-11-15T00:41:00;4.20;88.20
75451;DHT22;64029;48.244;9.188;2022-11-15T00:43:27;4.20;88.10
75451;DHT22;64029;48.244;9.188;2022-11-15T00:45:54;4.10;88.10
75451;DHT22;64029;48.244;9.188;2022-11-15T00:48:21;4.10;88.00
75451;DHT22;64029;48.244;9.188;2022-11-15T00:50:49;4.10;88.00
75451;DHT22;64029;48.244;9.188;2022-11-15T00:53:17;4.10;88.00
75451;DHT22;64029;48.244;9.188;2022-11-15T00:55:44;4.00;87.90
75451;DHT22;64029;48.244;9.188;2022-11-15T00:58:11;4.00;87.90
75451;DHT22;64029;48.244;9.188;2022-11-15T01:00:37;4.00;87.90
75451;DHT22;64029;48.244;9.188;2022-11-15T01:03:04;4.00;88.10
75451;DHT22;64029;48.244;9.188;2022-11-15T01:05:31;3.90;87.90
75451;DHT22;64029;48.244;9.188;2022-11-15T01:07:58;3.90;87.80
75451;DHT22;64029;48.244;9.188;2022-11-15T01:10:26;3.90;87.80
75451;DHT22;64029;48.244;9.188;2022-11-15T01:12:53;3.80;87.60
75451;DHT22;64029;48.244;9.188;2022-11-15T01:15:20;3.80;87.50
75451;DHT22;64029;48.244;9.188;2022-11-15T01:17:46;3.80;87.50
75451;DHT22;64029;48.244;9.188;2022-11-15T01:20:13;3.80;87.60
75451;DHT22;64029;48.244;9.188;2022-11-15T01:22:40;3.80;87.50
75451;DHT22;64029;48.244;9.188;2022-11-15T01:25:07;3.80;87.50
75451;DHT22;64029;48.244;9.188;2022-11-15T01:27:35;3.80;87.50
75451;DHT22;64029;48.244;9.188;2022-11-15T01:30:02;3.70;87.30
75451;DHT22;64029;48.244;9.188;2022-11-15T01:32:30;3.70;87.30
75451;DHT22;64029;48.244;9.188;2022-11-15T01:34:56;3.70;87.30
75451;DHT22;64029;48.244;9.188;2022-11-15T01:37:23;3.70;87.60
75451;DHT22;64029;48.244;9.188;2022-11-15T01:39:50;3.70;87.70
75451;DHT22;64029;48.244;9.188;2022-11-15T01:42:18;3.70;87.90
75451;DHT22;64029;48.244;9.188;2022-11-15T01:44:48;3.60;87.60
75451;DHT22;64029;48.244;9.188;2022-11-15T01:47:17;3.60;87.40
75451;DHT22;64029;48.244;9.188;2022-11-15T01:49:50;3.60;87.40
75451;DHT22;64029;48.244;9.188;2022-11-15T01:52:20;3.60;87.30
75451;DHT22;64029;48.244;9.188;2022-11-15T01:54:50;3.50;87.30
75451;DHT22;64029;48.244;9.188;2022-11-15T01:57:19;3.50;87.30
75451;DHT22;64029;48.244;9.188;2022-11-15T01:59:48;3.50;87.40
75451;DHT22;64029;48.244;9.188;2022-11-15T02:02:15;3.50;87.30
75451;DHT22;64029;48.244;9.188;2022-11-15T02:04:43;3.50;87.40
75451;DHT22;64029;48.244;9.188;2022-11-15T02:07:14;3.40;87.20
75451;DHT22;64029;48.244;9.188;2022-11-15T02:09:42;3.40;87.20
75451;DHT22;64029;48.244;9.188;2022-11-15T02:12:10;3.40;87.20
75451;DHT22;64029;48.244;9.188;2022-11-15T02:14:40;3.40;87.20
75451;DHT22;64029;48.244;9.188;2022-11-15T02:17:20;3.40;87.20
75451;DHT22;64029;48.244;9.188;2022-11-15T02:23:12;3.30;87.00
75451;DHT22;64029;48.244;9.188;2022-11-15T02:25:50;3.30;87.10
75451;DHT22;64029;48.244;9.188;2022-11-15T02:28:44;3.30;87.10
75451;DHT22;64029;48.244;9.188;2022-11-15T02:31:20;3.30;87.00
75451;DHT22;64029;48.244;9.188;2022-11-15T02:33:57;3.30;87.10
75451;DHT22;64029;48.244;9.188;2022-11-15T02:36:36;3.30;87.00
75451;DHT22;64029;48.244;9.188;2022-11-15T02:39:10;3.30;87.20
75451;DHT22;64029;48.244;9.188;2022-11-15T02:41:41;3.30;87.10
75451;DHT22;64029;48.244;9.188;2022-11-15T02:44:15;3.20;87.10
75451;DHT22;64029;48.244;9.188;2022-11-15T02:46:46;3.20;87.00
75451;DHT22;64029;48.244;9.188;2022-11-15T02:49:34;3.20;87.00
75451;DHT22;64029;48.244;9.188;2022-11-15T02:52:01;3.20;87.10
75451;DHT22;64029;48.244;9.188;2022-11-15T02:54:30;3.20;86.90
75451;DHT22;64029;48.244;9.188;2022-11-15T02:57:01;3.20;86.90
75451;DHT22;64029;48.244;9.188;2022-11-15T02:59:48;3.20;87.00
75451;DHT22;64029;48.244;9.188;2022-11-15T03:02:32;3.20;87.00
75451;DHT22;64029;48.244;9.188;2022-11-15T03:05:08;3.10;87.00
75451;DHT22;64029;48.244;9.188;2022-11-15T03:07:42;3.10;87.50
75451;DHT22;64029;48.244;9.188;2022-11-15T03:10:14;3.10;87.10
75451;DHT22;64029;48.244;9.188;2022-11-15T03:12:48;3.00;87.10
75451;DHT22;64029;48.244;9.188;2022-11-15T03:15:20;3.00;86.90
75451;DHT22;64029;48.244;9.188;2022-11-15T03:17:54;3.00;86.80
75451;DHT22;64029;48.244;9.188;2022-11-15T03:20:24;3.00;86.80
75451;DHT22;64029;48.244;9.188;2022-11-15T03:22:54;3.00;86.70
75451;DHT22;64029;48.244;9.188;2022-11-15T03:25:24;3.00;86.70
75451;DHT22;64029;48.244;9.188;2022-11-15T03:27:55;3.00;86.80
75451;DHT22;64029;48.244;9.188;2022-11-15T03:30:24;3.00;86.80
75451;DHT22;64029;48.244;9.188;2022-11-15T03:32:54;2.90;86.70
75451;DHT22;64029;48.244;9.188;2022-11-15T03:35:24;2.90;86.60
75451;DHT22;64029;48.244;9.188;2022-11-15T03:37:57;2.90;86.60
75451;DHT22;64029;48.244;9.188;2022-11-15T03:40:30;2.90;86.50
75451;DHT22;64029;48.244;9.188;2022-11-15T03:43:04;2.90;86.60
75451;DHT22;64029;48.244;9.188;2022-11-15T03:45:37;2.90;86.60
75451;DHT22;64029;48.244;9.188;2022-11-15T03:48:12;2.90;86.70
75451;DHT22;64029;48.244;9.188;2022-11-15T03:50:40;2.90;86.70
75451;DHT22;64029;48.244;9.188;2022-11-15T03:53:08;2.90;86.70
75451;DHT22;64029;48.244;9.188;2022-11-15T03:55:35;2.90;86.70
75451;DHT22;64029;48.244;9.188;2022-11-15T03:58:02;2.80;86.40
75451;DHT22;64029;48.244;9.188;2022-11-15T04:00:29;2.80;87.10
75451;DHT22;64029;48.244;9.188;2022-11-15T04:02:56;2.80;86.40
75451;DHT22;64029;48.244;9.188;2022-11-15T04:05:24;2.80;86.40
75451;DHT22;64029;48.244;9.188;2022-11-15T04:07:51;2.80;86.40
75451;DHT22;64029;48.244;9.188;2022-11-15T04:10:18;2.80;86.40
75451;DHT22;64029;48.244;9.188;2022-11-15T04:12:45;2.80;86.50
75451;DHT22;64029;48.244;9.188;2022-11-15T04:15:14;2.80;86.40
75451;DHT22;64029;48.244;9.188;2022-11-15T04:17:42;2.70;86.30
75451;DHT22;64029;48.244;9.188;2022-11-15T04:20:12;2.70;86.40
75451;DHT22;64029;48.244;9.188;2022-11-15T04:22:59;2.70;87.00
75451;DHT22;64029;48.244;9.188;2022-11-15T04:25:44;2.70;86.70
75451;DHT22;64029;48.244;9.188;2022-11-15T04:28:11;2.70;87.50
75451;DHT22;64029;48.244;9.188;2022-11-15T04:30:39;2.70;86.60
75451;DHT22;64029;48.244;9.188;2022-11-15T04:33:05;2.70;86.90
75451;DHT22;64029;48.244;9.188;2022-11-15T04:35:32;2.70;86.70
75451;DHT22;64029;48.244;9.188;2022-11-15T04:38:01;2.70;86.70
75451;DHT22;64029;48.244;9.188;2022-11-15T04:40:28;2.70;87.20
75451;DHT22;64029;48.244;9.188;2022-11-15T04:42:55;2.70;87.40
75451;DHT22;64029;48.244;9.188;2022-11-15T04:45:21;2.70;86.90
75451;DHT22;64029;48.244;9.188;2022-11-15T04:47:48;2.70;86.90
75451;DHT22;64029;48.244;9.188;2022-11-15T04:50:16;2.70;86.70
75451;DHT22;64029;48.244;9.188;2022-11-15T04:52:49;2.70;86.80
75451;DHT22;64029;48.244;9.188;2022-11-15T04:55:18;2.70;86.70
75451;DHT22;64029;48.244;9.188;2022-11-15T04:57:45;2.70;86.90
75451;DHT22;64029;48.244;9.188;2022-11-15T05:00:14;2.60;86.80
75451;DHT22;64029;48.244;9.188;2022-11-15T05:02:41;2.60;87.00
75451;DHT22;64029;48.244;9.188;2022-11-15T05:05:26;2.60;87.20
75451;DHT22;64029;48.244;9.188;2022-11-15T05:07:52;2.60;87.30
75451;DHT22;64029;48.244;9.188;2022-11-15T05:10:21;2.60;87.00
75451;DHT22;64029;48.244;9.188;2022-11-15T05:12:49;2.60;87.00
75451;DHT22;64029;48.244;9.188;2022-11-15T05:15:16;2.60;87.00
75451;DHT22;64029;48.244;9.188;2022-11-15T05:17:43;2.60;86.90
75451;DHT22;64029;48.244;9.188;2022-11-15T05:20:10;2.60;87.00
75451;DHT22;64029;48.244;9.188;2022-11-15T05:22:38;2.60;87.00
75451;DHT22;64029;48.244;9.188;2022-11-15T05:25:06;2.60;87.20
75451;DHT22;64029;48.244;9.188;2022-11-15T05:27:34;2.60;87.10
75451;DHT22;64029;48.244;9.188;2022-11-15T05:30:01;2.70;87.80
75451;DHT22;64029;48.244;9.188;2022-11-15T05:32:28;2.60;87.20
75451;DHT22;64029;48.244;9.188;2022-11-15T05:34:55;2.60;87.40
75451;DHT22;64029;48.244;9.188;2022-11-15T05:37:22;2.60;87.30
75451;DHT22;64029;48.244;9.188;2022-11-15T05:39:49;2.60;87.10
75451;DHT22;64029;48.244;9.188;2022-11-15T05:42:16;2.60;87.00
75451;DHT22;64029;48.244;9.188;2022-11-15T05:44:48;2.60;87.10
75451;DHT22;64029;48.244;9.188;2022-11-15T05:47:18;2.60;87.90
75451;DHT22;64029;48.244;9.188;2022-11-15T05:49:47;2.60;87.00
75451;DHT22;64029;48.244;9.188;2022-11-15T05:52:17;2.60;87.30
75451;DHT22;64029;48.244;9.188;2022-11-15T05:54:44;2.60;87.40
75451;DHT22;64029;48.244;9.188;2022-11-15T05:57:11;2.60;87.60
75451;DHT22;64029;48.244;9.188;2022-11-15T05:59:38;2.60;87.30
75451;DHT22;64029;48.244;9.188;2022-11-15T06:02:07;2.60;87.60
75451;DHT22;64029;48.244;9.188;2022-11-15T06:04:34;2.60;87.20
75451;DHT22;64029;48.244;9.188;2022-11-15T06:07:02;2.60;87.50
75451;DHT22;64029;48.244;9.188;2022-11-15T06:09:28;2.60;87.60
75451;DHT22;64029;48.244;9.188;2022-11-15T06:11:55;2.60;87.30
75451;DHT22;64029;48.244;9.188;2022-11-15T06:14:22;2.60;87.10
75451;DHT22;64029;48.244;9.188;2022-11-15T06:16:49;2.60;87.30
75451;DHT22;64029;48.244;9.188;2022-11-15T06:19:17;2.50;87.20
75451;DHT22;64029;48.244;9.188;2022-11-15T06:21:44;2.50;87.20
75451;DHT22;64029;48.244;9.188;2022-11-15T06:24:11;2.50;87.20
75451;DHT22;64029;48.244;9.188;2022-11-15T06:26:38;2.60;87.70
75451;DHT22;64029;48.244;9.188;2022-11-15T06:29:05;2.60;87.70
75451;DHT22;64029;48.244;9.188;2022-11-15T06:31:33;2.50;87.60
75451;DHT22;64029;48.244;9.188;2022-11-15T06:34:00;2.50;87.50
75451;DHT22;64029;48.244;9.188;2022-11-15T06:36:28;2.50;87.60
75451;DHT22;64029;48.244;9.188;2022-11-15T06:38:55;2.50;87.80
75451;DHT22;64029;48.244;9.188;2022-11-15T06:41:23;2.50;87.60
75451;DHT22;64029;48.244;9.188;2022-11-15T06:43:49;2.50;87.80
75451;DHT22;64029;48.244;9.188;2022-11-15T06:46:16;2.50;87.60
75451;DHT22;64029;48.244;9.188;2022-11-15T06:48:43;2.50;87.70
75451;DHT22;64029;48.244;9.188;2022-11-15T06:51:10;2.50;87.70
75451;DHT22;64029;48.244;9.188;2022-11-15T06:53:38;2.60;87.90
75451;DHT22;64029;48.244;9.188;2022-11-15T06:56:06;2.50;87.80
75451;DHT22;64029;48.244;9.188;2022-11-15T06:58:34;2.60;87.70
75451;DHT22;64029;48.244;9.188;2022-11-15T07:01:02;2.50;87.70
75451;DHT22;64029;48.244;9.188;2022-11-15T07:03:30;2.60;88.20
75451;DHT22;64029;48.244;9.188;2022-11-15T07:05:57;2.60;88.20
75451;DHT22;64029;48.244;9.188;2022-11-15T07:08:27;2.60;87.80
75451;DHT22;64029;48.244;9.188;2022-11-15T07:10:58;2.60;87.80
75451;DHT22;64029;48.244;9.188;2022-11-15T07:13:25;2.60;87.80
75451;DHT22;64029;48.244;9.188;2022-11-15T07:15:52;2.60;87.70
75451;DHT22;64029;48.244;9.188;2022-11-15T07:18:19;2.60;88.00
75451;DHT22;64029;48.244;9.188;2022-11-15T07:20:46;2.60;88.00
75451;DHT22;64029;48.244;9.188;2022-11-15T07:23:13;2.70;88.10
75451;DHT22;64029;48.244;9.188;2022-11-15T07:25:40;2.70;88.10
75451;DHT22;64029;48.244;9.188;2022-11-15T07:28:08;2.70;87.90
75451;DHT22;64029;48.244;9.188;2022-11-15T07:30:35;2.70;88.00
75451;DHT22;64029;48.244;9.188;2022-11-15T07:33:02;2.80;88.10
75451;DHT22;64029;48.244;9.188;2022-11-15T07:35:29;2.80;87.90
75451;DHT22;64029;48.244;9.188;2022-11-15T07:37:57;2.80;88.10
75451;DHT22;64029;48.244;9.188;2022-11-15T07:40:26;2.80;87.90
75451;DHT22;64029;48.244;9.188;2022-11-15T07:42:58;2.90;88.70
75451;DHT22;64029;48.244;9.188;2022-11-15T07:45:27;3.00;88.10
75451;DHT22;64029;48.244;9.188;2022-11-15T07:47:54;3.00;88.20
75451;DHT22;64029;48.244;9.188;2022-11-15T07:50:23;3.10;88.30
75451;DHT22;64029;48.244;9.188;2022-11-15T07:52:53;3.10;88.30
75451;DHT22;64029;48.244;9.188;2022-11-15T07:55:21;3.20;87.80
75451;DHT22;64029;48.244;9.188;2022-11-15T07:57:48;3.20;88.30
75451;DHT22;64029;48.244;9.188;2022-11-15T08:00:16;3.20;88.30
75451;DHT22;64029;48.244;9.188;2022-11-15T08:02:44;3.20;88.20
75451;DHT22;64029;48.244;9.188;2022-11-15T08:05:11;3.30;88.70
75451;DHT22;64029;48.244;9.188;2022-11-15T08:07:38;3.40;88.70
75451;DHT22;64029;48.244;9.188;2022-11-15T08:10:07;3.50;88.80
75451;DHT22;64029;48.244;9.188;2022-11-15T08:12:34;3.50;88.80
75451;DHT22;64029;48.244;9.188;2022-11-15T08:15:00;3.50;89.40
75451;DHT22;64029;48.244;9.188;2022-11-15T08:17:27;3.50;88.80
75451;DHT22;64029;48.244;9.188;2022-11-15T08:19:58;3.60;88.90
75451;DHT22;64029;48.244;9.188;2022-11-15T08:22:25;3.60;88.90
75451;DHT22;64029;48.244;9.188;2022-11-15T08:24:52;3.70;89.00
75451;DHT22;64029;48.244;9.188;2022-11-15T08:27:19;3.70;89.70
75451;DHT22;64029;48.244;9.188;2022-11-15T08:29:48;3.70;89.00
75451;DHT22;64029;48.244;9.188;2022-11-15T08:32:15;3.80;89.10
75451;DHT22;64029;48.244;9.188;2022-11-15T08:34:43;3.80;89.20
75451;DHT22;64029;48.244;9.188;2022-11-15T08:37:11;3.80;89.80
75451;DHT22;64029;48.244;9.188;2022-11-15T08:39:38;3.90;89.60
75451;DHT22;64029;48.244;9.188;2022-11-15T08:42:05;3.90;89.40
75451;DHT22;64029;48.244;9.188;2022-11-15T08:44:32;4.00;90.00
75451;DHT22;64029;48.244;9.188;2022-11-15T08:46:58;4.00;89.80
75451;DHT22;64029;48.244;9.188;2022-11-15T08:49:25;4.10;90.20
75451;DHT22;64029;48.244;9.188;2022-11-15T08:51:52;4.10;89.90
75451;DHT22;64029;48.244;9.188;2022-11-15T08:54:20;4.10;89.70
75451;DHT22;64029;48.244;9.188;2022-11-15T08:56:47;4.10;89.70
75451;DHT22;64029;48.244;9.188;2022-11-15T08:59:14;4.20;89.70
75451;DHT22;64029;48.244;9.188;2022-11-15T09:01:41;4.30;90.20
75451;DHT22;64029;48.244;9.188;2022-11-15T09:04:07;4.40;90.60
75451;DHT22;64029;48.244;9.188;2022-11-15T09:06:34;4.40;90.20
75451;DHT22;64029;48.244;9.188;2022-11-15T09:09:02;4.50;90.30
75451;DHT22;64029;48.244;9.188;2022-11-15T09:11:30;4.60;90.40
75451;DHT22;64029;48.244;9.188;2022-11-15T09:13:57;4.60;90.30
75451;DHT22;64029;48.244;9.188;2022-11-15T09:16:24;4.60;90.30
75451;DHT22;64029;48.244;9.188;2022-11-15T09:18:50;4.70;90.50
75451;DHT22;64029;48.244;9.188;2022-11-15T09:21:17;4.80;90.60
75451;DHT22;64029;48.244;9.188;2022-11-15T09:23:44;4.90;90.80
75451;DHT22;64029;48.244;9.188;2022-11-15T09:26:11;5.00;90.80
75451;DHT22;64029;48.244;9.188;2022-11-15T09:28:39;5.10;90.80
75451;DHT22;64029;48.244;9.188;2022-11-15T09:31:07;5.10;90.80
75451;DHT22;64029;48.244;9.188;2022-11-15T09:33:35;5.20;90.90
75451;DHT22;64029;48.244;9.188;2022-11-15T09:36:04;5.40;91.50
75451;DHT22;64029;48.244;9.188;2022-11-15T09:38:32;5.50;91.60
75451;DHT22;64029;48.244;9.188;2022-11-15T09:44:25;5.40;91.30
75451;DHT22;64029;48.244;9.188;2022-11-15T09:47:06;5.50;91.50
75451;DHT22;64029;48.244;9.188;2022-11-15T09:49:35;5.70;91.80
75451;DHT22;64029;48.244;9.188;2022-11-15T09:52:02;5.70;91.70
75451;DHT22;64029;48.244;9.188;2022-11-15T09:54:31;5.90;91.90
75451;DHT22;64029;48.244;9.188;2022-11-15T09:57:04;5.90;91.80
75451;DHT22;64029;48.244;9.188;2022-11-15T09:59:51;6.00;91.90
75451;DHT22;64029;48.244;9.188;2022-11-15T10:02:42;6.20;92.00
75451;DHT22;64029;48.244;9.188;2022-11-15T10:05:14;6.30;92.10
75451;DHT22;64029;48.244;9.188;2022-11-15T10:07:48;6.40;91.90
75451;DHT22;64029;48.244;9.188;2022-11-15T10:10:22;6.40;92.00
75451;DHT22;64029;48.244;9.188;2022-11-15T10:12:52;6.70;92.50
75451;DHT22;64029;48.244;9.188;2022-11-15T10:15:21;6.80;92.60
75451;DHT22;64029;48.244;9.188;2022-11-15T10:18:14;6.90;92.60
75451;DHT22;64029;48.244;9.188;2022-11-15T10:20:48;7.00;92.80
75451;DHT22;64029;48.244;9.188;2022-11-15T10:23:18;7.10;92.80
75451;DHT22;64029;48.244;9.188;2022-11-15T10:25:45;7.20;92.90
75451;DHT22;64029;48.244;9.188;2022-11-15T10:28:16;7.20;92.90
75451;DHT22;64029;48.244;9.188;2022-11-15T10:30:48;7.40;93.10
75451;DHT22;64029;48.244;9.188;2022-11-15T10:33:25;7.60;93.30
75451;DHT22;64029;48.244;9.188;2022-11-15T10:36:14;7.50;93.20
75451;DHT22;64029;48.244;9.188;2022-11-15T10:38:54;7.50;93.10
75451;DHT22;64029;48.244;9.188;2022-11-15T10:41:29;7.60;93.10
75451;DHT22;64029;48.244;9.188;2022-11-15T10:44:08;7.70;93.30
75451;DHT22;64029;48.244;9.188;2022-11-15T10:46:38;7.80;93.20
75451;DHT22;64029;48.244;9.188;2022-11-15T10:49:13;7.80;93.20
75451;DHT22;64029;48.244;9.188;2022-11-15T10:51:43;7.80;93.10
75451;DHT22;64029;48.244;9.188;2022-11-15T10:54:12;7.90;93.20
75451;DHT22;64029;48.244;9.188;2022-11-15T10:56:42;8.00;93.20
75451;DHT22;64029;48.244;9.188;2022-11-15T10:59:25;8.00;93.00
75451;DHT22;64029;48.244;9.188;2022-11-15T11:01:55;8.10;93.00
75451;DHT22;64029;48.244;9.188;2022-11-15T11:04:22;8.10;93.10
75451;DHT22;64029;48.244;9.188;2022-11-15T11:06:50;8.20;93.00
75451;DHT22;64029;48.244;9.188;2022-11-15T11:09:27;8.20;93.00
75451;DHT22;64029;48.244;9.188;2022-11-15T11:11:55;8.30;93.00
75451;DHT22;64029;48.244;9.188;2022-11-15T11:14:24;8.30;92.90
75451;DHT22;64029;48.244;9.188;2022-11-15T11:16:57;8.40;93.10
75451;DHT22;64029;48.244;9.188;2022-11-15T11:19:49;8.60;93.20
75451;DHT22;64029;48.244;9.188;2022-11-15T11:22:23;8.60;93.10
75451;DHT22;64029;48.244;9.188;2022-11-15T11:25:03;8.60;93.10
75451;DHT22;64029;48.244;9.188;2022-11-15T11:27:39;8.70;93.30
75451;DHT22;64029;48.244;9.188;2022-11-15T11:30:12;8.80;93.30
75451;DHT22;64029;48.244;9.188;2022-11-15T11:33:02;8.80;93.20
75451;DHT22;64029;48.244;9.188;2022-11-15T11:35:35;8.80;93.10
75451;DHT22;64029;48.244;9.188;2022-11-15T11:38:19;8.90;93.30
75451;DHT22;64029;48.244;9.188;2022-11-15T11:40:59;8.90;93.20
75451;DHT22;64029;48.244;9.188;2022-11-15T11:43:34;9.00;93.30
75451;DHT22;64029;48.244;9.188;2022-11-15T11:46:16;9.00;93.10
75451;DHT22;64029;48.244;9.188;2022-11-15T11:48:52;9.00;93.10
75451;DHT22;64029;48.244;9.188;2022-11-15T11:51:27;9.10;93.20
75451;DHT22;64029;48.244;9.188;2022-11-15T11:53:58;9.00;93.10
75451;DHT22;64029;48.244;9.188;2022-11-15T11:56:29;9.10;93.20
75451;DHT22;64029;48.244;9.188;2022-11-15T11:59:00;9.20;93.30
75451;DHT22;64029;48.244;9.188;2022-11-15T12:01:32;9.30;93.20
75451;DHT22;64029;48.244;9.188;2022-11-15T12:04:04;9.30;93.10
75451;DHT22;64029;48.244;9.188;2022-11-15T12:06:38;9.30;93.10
75451;DHT22;64029;48.244;9.188;2022-11-15T12:09:12;9.40;93.20
75451;DHT22;64029;48.244;9.188;2022-11-15T12:11:47;9.50;93.20
75451;DHT22;64029;48.244;9.188;2022-11-15T12:14:24;9.50;93.10
75451;DHT22;64029;48.244;9.188;2022-11-15T12:16:51;9.50;93.20
75451;DHT22;64029;48.244;9.188;2022-11-15T12:19:19;9.50;93.20
75451;DHT22;64029;48.244;9.188;2022-11-15T12:21:50;9.60;93.40
75451;DHT22;64029;48.244;9.188;2022-11-15T12:24:24;9.60;93.20
75451;DHT22;64029;48.244;9.188;2022-11-15T12:26:56;9.60;93.20
75451;DHT22;64029;48.244;9.188;2022-11-15T12:29:27;9.70;93.30
75451;DHT22;64029;48.244;9.188;2022-11-15T12:31:56;9.60;93.20
75451;DHT22;64029;48.244;9.188;2022-11-15T12:34:47;9.70;93.30
75451;DHT22;64029;48.244;9.188;2022-11-15T12:40:32;9.80;93.20
75451;DHT22;64029;48.244;9.188;2022-11-15T12:43:01;9.80;93.20
75451;DHT22;64029;48.244;9.188;2022-11-15T12:45:31;9.80;93.10
75451;DHT22;64029;48.244;9.188;2022-11-15T12:48:48;9.80;93.10
75451;DHT22;64029;48.244;9.188;2022-11-15T12:51:20;9.80;93.10
75451;DHT22;64029;48.244;9.188;2022-11-15T12:53:47;9.80;93.00
75451;DHT22;64029;48.244;9.188;2022-11-15T12:56:22;9.90;93.10
75451;DHT22;64029;48.244;9.188;2022-11-15T12:58:52;9.90;93.10
75451;DHT22;64029;48.244;9.188;2022-11-15T13:04:25;10.00;92.50
75451;DHT22;64029;48.244;9.188;2022-11-15T13:06:56;10.00;92.60
75451;DHT22;64029;48.244;9.188;2022-11-15T13:09:51;10.00;92.50
75451;DHT22;64029;48.244;9.188;2022-11-15T13:12:48;10.10;92.60
75451;DHT22;64029;48.244;9.188;2022-11-15T13:18:36;10.10;92.40
75451;DHT22;64029;48.244;9.188;2022-11-15T13:21:16;10.00;92.40
75451;DHT22;64029;48.244;9.188;2022-11-15T13:24:03;10.10;92.50
75451;DHT22;64029;48.244;9.188;2022-11-15T13:26:31;10.10;92.50
75451;DHT22;64029;48.244;9.188;2022-11-15T13:28:58;10.20;92.50
75451;DHT22;64029;48.244;9.188;2022-11-15T13:31:29;10.10;92.40
75451;DHT22;64029;48.244;9.188;2022-11-15T13:34:00;10.20;92.40
75451;DHT22;64029;48.244;9.188;2022-11-15T13:36:29;10.20;92.40
75451;DHT22;64029;48.244;9.188;2022-11-15T13:39:01;10.20;92.40
75451;DHT22;64029;48.244;9.188;2022-11-15T13:41:32;10.20;92.40
75451;DHT22;64029;48.244;9.188;2022-11-15T13:44:00;10.20;92.40
75451;DHT22;64029;48.244;9.188;2022-11-15T13:46:28;10.20;92.40
75451;DHT22;64029;48.244;9.188;2022-11-15T13:48:57;10.20;92.40
75451;DHT22;64029;48.244;9.188;2022-11-15T13:51:30;10.20;92.30
75451;DHT22;64029;48.244;9.188;2022-11-15T13:54:00;10.20;92.30
75451;DHT22;64029;48.244;9.188;2022-11-15T13:56:32;10.30;92.40
75451;DHT22;64029;48.244;9.188;2022-11-15T13:58:59;10.30;92.40
75451;DHT22;64029;48.244;9.188;2022-11-15T14:01:30;10.30;92.40
75451;DHT22;64029;48.244;9.188;2022-11-15T14:04:00;10.30;92.40
75451;DHT22;64029;48.244;9.188;2022-11-15T14:06:29;10.30;92.40
75451;DHT22;64029;48.244;9.188;2022-11-15T14:09:34;10.30;92.40
75451;DHT22;64029;48.244;9.188;2022-11-15T14:12:26;10.30;92.40
75451;DHT22;64029;48.244;9.188;2022-11-15T14:14:54;10.30;92.60
75451;DHT22;64029;48.244;9.188;2022-11-15T14:17:34;10.30;92.70
75451;DHT22;64029;48.244;9.188;2022-11-15T14:20:02;10.30;92.70
75451;DHT22;64029;48.244;9.188;2022-11-15T14:22:52;10.30;92.60
75451;DHT22;64029;48.244;9.188;2022-11-15T14:25:23;10.30;92.40
75451;DHT22;64029;48.244;9.188;2022-11-15T14:28:13;10.30;92.40
75451;DHT22;64029;48.244;9.188;2022-11-15T14:30:42;10.30;92.70
75451;DHT22;64029;48.244;9.188;2022-11-15T14:33:25;10.30;92.30
75451;DHT22;64029;48.244;9.188;2022-11-15T14:35:54;10.30;92.30
75451;DHT22;64029;48.244;9.188;2022-11-15T14:38:22;10.30;92.20
75451;DHT22;64029;48.244;9.188;2022-11-15T14:40:49;10.30;92.20
75451;DHT22;64029;48.244;9.188;2022-11-15T14:43:18;10.30;92.20
75451;DHT22;64029;48.244;9.188;2022-11-15T14:45:45;10.30;92.20
75451;DHT22;64029;48.244;9.188;2022-11-15T14:48:12;10.30;92.10
75451;DHT22;64029;48.244;9.188;2022-11-15T14:50:39;10.20;92.20
75451;DHT22;64029;48.244;9.188;2022-11-15T14:53:06;10.20;92.10
75451;DHT22;64029;48.244;9.188;2022-11-15T14:55:35;10.20;92.10
75451;DHT22;64029;48.244;9.188;2022-11-15T14:58:03;10.20;92.10
75451;DHT22;64029;48.244;9.188;2022-11-15T15:00:32;10.20;92.20
75451;DHT22;64029;48.244;9.188;2022-11-15T15:02:59;10.20;92.10
75451;DHT22;64029;48.244;9.188;2022-11-15T15:05:30;10.20;92.10
75451;DHT22;64029;48.244;9.188;2022-11-15T15:07:58;10.20;92.00
75451;DHT22;64029;48.244;9.188;2022-11-15T15:10:25;10.20;92.00
75451;DHT22;64029;48.244;9.188;2022-11-15T15:12:54;10.20;92.00
75451;DHT22;64029;48.244;9.188;2022-11-15T15:15:24;10.10;91.90
75451;DHT22;64029;48.244;9.188;2022-11-15T15:17:52;10.10;91.90
75451;DHT22;64029;48.244;9.188;2022-11-15T15:20:19;10.10;91.90
75451;DHT22;64029;48.244;9.188;2022-11-15T15:22:46;10.10;91.90
75451;DHT22;64029;48.244;9.188;2022-11-15T15:25:24;10.10;91.90
75451;DHT22;64029;48.244;9.188;2022-11-15T15:27:53;10.00;91.90
75451;DHT22;64029;48.244;9.188;2022-11-15T15:30:20;10.00;91.90
75451;DHT22;64029;48.244;9.188;2022-11-15T15:32:47;10.00;91.80
75451;DHT22;64029;48.244;9.188;2022-11-15T15:35:17;10.00;91.80
75451;DHT22;64029;48.244;9.188;2022-11-15T15:37:44;10.00;91.80
75451;DHT22;64029;48.244;9.188;2022-11-15T15:40:14;9.90;92.30
75451;DHT22;64029;48.244;9.188;2022-11-15T15:42:42;9.90;92.20
75451;DHT22;64029;48.244;9.188;2022-11-15T15:45:09;9.90;92.50
75451;DHT22;64029;48.244;9.188;2022-11-15T15:47:37;9.80;92.20
75451;DHT22;64029;48.244;9.188;2022-11-15T15:50:09;9.80;92.20
75451;DHT22;64029;48.244;9.188;2022-11-15T15:52:39;9.80;92.10
75451;DHT22;64029;48.244;9.188;2022-11-15T15:55:07;9.80;92.10
75451;DHT22;64029;48.244;9.188;2022-11-15T15:57:34;9.70;91.90
75451;DHT22;64029;48.244;9.188;2022-11-15T16:00:01;9.70;91.90
75451;DHT22;64029;48.244;9.188;2022-11-15T16:02:28;9.60;91.90
75451;DHT22;64029;48.244;9.188;2022-11-15T16:04:55;9.60;91.90
75451;DHT22;64029;48.244;9.188;2022-11-15T16:07:22;9.60;91.90
75451;DHT22;64029;48.244;9.188;2022-11-15T16:09:51;9.60;91.90
75451;DHT22;64029;48.244;9.188;2022-11-15T16:12:27;9.50;91.80
75451;DHT22;64029;48.244;9.188;2022-11-15T16:14:54;9.50;91.80
75451;DHT22;64029;48.244;9.188;2022-11-15T16:17:22;9.50;91.80
75451;DHT22;64029;48.244;9.188;2022-11-15T16:19:50;9.50;91.80
75451;DHT22;64029;48.244;9.188;2022-11-15T16:22:17;9.40;91.80